sensor_id;sensor_type;location;lat;lon;timestamp;P1;durP1;ratioP1;P2;durP2;ratioP2
22786;SDS011;63134;52.020;4.714;2022-12-07T00:00:50;13.70;;;3.38;;
22786;SDS011;63134;52.020;4.714;2022-12-07T00:03:36;15.73;;;2.78;;
22786;SDS011;63134;52.020;4.714;2022-12-07T00:06:22;9.02;;;2.15;;
22786;SDS011;63134;52.020;4.714;2022-12-07T00:09:11;13.15;;;2.70;;
22786;SDS011;63134;52.020;4.714;2022-12-07T00:11:59;16.98;;;3.17;;
22786;SDS011;63134;52.020;4.714;2022-12-07T00:14:44;12.90;;;2.88;;
22786;SDS011;63134;52.020;4.714;2022-12-07T00:17:30;13.70;;;2.60;;
22786;SDS011;63134;52.020;4.714;2022-12-07T00:20:15;15.10;;;2.55;;
22786;SDS011;63134;52.020;4.714;2022-12-07T00:23:00;15.20;;;2.50;;
22786;SDS011;63134;52.020;4.714;2022-12-07T00:25:49;7.45;;;2.40;;
22786;SDS011;63134;52.020;4.714;2022-12-07T00:28:34;10.60;;;2.83;;
22786;SDS011;63134;52.020;4.714;2022-12-07T00:31:20;11.98;;;2.72;;
22786;SDS011;63134;52.020;4.714;2022-12-07T00:34:20;12.18;;;2.33;;
22786;SDS011;63134;52.020;4.714;2022-12-07T00:37:06;10.05;;;2.67;;
22786;SDS011;63134;52.020;4.714;2022-12-07T00:39:52;13.52;;;2.25;;
22786;SDS011;63134;52.020;4.714;2022-12-07T00:42:38;14.10;;;2.53;;
22786;SDS011;63134;52.020;4.714;2022-12-07T00:45:24;11.57;;;2.08;;
22786;SDS011;63134;52.020;4.714;2022-12-07T00:48:10;9.95;;;2.30;;
22786;SDS011;63134;52.020;4.714;2022-12-07T00:50:55;14.85;;;2.55;;
22786;SDS011;63134;52.020;4.714;2022-12-07T00:53:41;13.63;;;2.97;;
22786;SDS011;63134;52.020;4.714;2022-12-07T00:56:27;9.38;;;2.30;;
22786;SDS011;63134;52.020;4.714;2022-12-07T00:59:13;12.45;;;1.95;;
22786;SDS011;63134;52.020;4.714;2022-12-07T01:01:59;9.45;;;2.42;;
22786;SDS011;63134;52.020;4.714;2022-12-07T01:04:45;14.55;;;2.38;;
22786;SDS011;63134;52.020;4.714;2022-12-07T01:07:30;11.23;;;2.70;;
22786;SDS011;63134;52.020;4.714;2022-12-07T01:10:16;14.73;;;2.22;;
22786;SDS011;63134;52.020;4.714;2022-12-07T01:13:02;12.68;;;2.15;;
22786;SDS011;63134;52.020;4.714;2022-12-07T01:15:47;12.75;;;2.78;;
22786;SDS011;63134;52.020;4.714;2022-12-07T01:18:34;12.35;;;2.08;;
22786;SDS011;63134;52.020;4.714;2022-12-07T01:21:22;10.25;;;2.50;;
22786;SDS011;63134;52.020;4.714;2022-12-07T01:24:09;11.05;;;2.00;;
22786;SDS011;63134;52.020;4.714;2022-12-07T01:26:55;9.23;;;1.83;;
22786;SDS011;63134;52.020;4.714;2022-12-07T01:29:43;10.52;;;2.00;;
22786;SDS011;63134;52.020;4.714;2022-12-07T01:32:28;10.95;;;2.03;;
22786;SDS011;63134;52.020;4.714;2022-12-07T01:35:14;15.20;;;2.35;;
22786;SDS011;63134;52.020;4.714;2022-12-07T01:37:59;10.05;;;1.92;;
22786;SDS011;63134;52.020;4.714;2022-12-07T01:40:53;11.27;;;2.10;;
22786;SDS011;63134;52.020;4.714;2022-12-07T01:46:58;12.13;;;2.05;;
22786;SDS011;63134;52.020;4.714;2022-12-07T01:49:46;14.60;;;1.98;;
22786;SDS011;63134;52.020;4.714;2022-12-07T01:52:33;10.07;;;2.08;;
22786;SDS011;63134;52.020;4.714;2022-12-07T01:55:21;14.25;;;1.80;;
22786;SDS011;63134;52.020;4.714;2022-12-07T01:58:08;14.32;;;2.58;;
22786;SDS011;63134;52.020;4.714;2022-12-07T02:00:55;13.55;;;2.75;;
22786;SDS011;63134;52.020;4.714;2022-12-07T02:03:45;7.45;;;1.95;;
22786;SDS011;63134;52.020;4.714;2022-12-07T02:06:31;11.20;;;1.95;;
22786;SDS011;63134;52.020;4.714;2022-12-07T02:09:16;11.90;;;1.98;;
22786;SDS011;63134;52.020;4.714;2022-12-07T02:12:02;14.68;;;2.40;;
22786;SDS011;63134;52.020;4.714;2022-12-07T02:14:48;14.10;;;2.10;;
22786;SDS011;63134;52.020;4.714;2022-12-07T02:17:38;11.43;;;2.08;;
22786;SDS011;63134;52.020;4.714;2022-12-07T02:24:22;9.27;;;2.00;;
22786;SDS011;63134;52.020;4.714;2022-12-07T02:30:33;10.90;;;2.05;;
22786;SDS011;63134;52.020;4.714;2022-12-07T02:33:27;17.77;;;2.83;;
22786;SDS011;63134;52.020;4.714;2022-12-07T02:36:26;7.72;;;1.83;;
22786;SDS011;63134;52.020;4.714;2022-12-07T02:39:19;19.80;;;2.20;;
22786;SDS011;63134;52.020;4.714;2022-12-07T02:42:27;6.68;;;2.08;;
22786;SDS011;63134;52.020;4.714;2022-12-07T02:45:21;12.65;;;2.22;;
22786;SDS011;63134;52.020;4.714;2022-12-07T02:48:13;8.90;;;2.63;;
22786;SDS011;63134;52.020;4.714;2022-12-07T02:51:02;11.77;;;1.88;;
22786;SDS011;63134;52.020;4.714;2022-12-07T02:53:47;10.65;;;2.25;;
22786;SDS011;63134;52.020;4.714;2022-12-07T03:02:47;12.65;;;2.00;;
22786;SDS011;63134;52.020;4.714;2022-12-07T03:05:51;11.88;;;2.53;;
22786;SDS011;63134;52.020;4.714;2022-12-07T03:11:48;12.85;;;2.08;;
22786;SDS011;63134;52.020;4.714;2022-12-07T03:14:45;8.02;;;2.10;;
22786;SDS011;63134;52.020;4.714;2022-12-07T03:17:44;12.80;;;1.80;;
22786;SDS011;63134;52.020;4.714;2022-12-07T03:20:33;10.20;;;2.28;;
22786;SDS011;63134;52.020;4.714;2022-12-07T03:23:26;12.07;;;1.73;;
22786;SDS011;63134;52.020;4.714;2022-12-07T03:26:13;9.98;;;1.70;;
22786;SDS011;63134;52.020;4.714;2022-12-07T03:29:05;11.85;;;1.88;;
22786;SDS011;63134;52.020;4.714;2022-12-07T03:32:12;9.15;;;2.42;;
22786;SDS011;63134;52.020;4.714;2022-12-07T03:37:52;6.32;;;1.70;;
22786;SDS011;63134;52.020;4.714;2022-12-07T03:41:29;14.52;;;2.13;;
22786;SDS011;63134;52.020;4.714;2022-12-07T03:43:53;10.50;;;1.92;;
22786;SDS011;63134;52.020;4.714;2022-12-07T03:46:58;14.50;;;2.33;;
22786;SDS011;63134;52.020;4.714;2022-12-07T03:49:51;10.25;;;2.03;;
22786;SDS011;63134;52.020;4.714;2022-12-07T03:55:42;9.77;;;2.00;;
22786;SDS011;63134;52.020;4.714;2022-12-07T03:58:30;11.35;;;2.15;;
22786;SDS011;63134;52.020;4.714;2022-12-07T04:01:18;7.45;;;1.50;;
22786;SDS011;63134;52.020;4.714;2022-12-07T04:04:04;10.50;;;2.38;;
22786;SDS011;63134;52.020;4.714;2022-12-07T04:06:50;6.60;;;2.22;;
22786;SDS011;63134;52.020;4.714;2022-12-07T04:09:35;12.38;;;1.63;;
22786;SDS011;63134;52.020;4.714;2022-12-07T04:12:21;7.70;;;1.98;;
22786;SDS011;63134;52.020;4.714;2022-12-07T04:15:10;9.07;;;2.42;;
22786;SDS011;63134;52.020;4.714;2022-12-07T04:17:55;16.08;;;2.10;;
22786;SDS011;63134;52.020;4.714;2022-12-07T04:20:42;11.85;;;1.98;;
22786;SDS011;63134;52.020;4.714;2022-12-07T04:23:31;10.07;;;1.70;;
22786;SDS011;63134;52.020;4.714;2022-12-07T04:26:17;12.70;;;2.40;;
22786;SDS011;63134;52.020;4.714;2022-12-07T04:29:05;12.10;;;2.05;;
22786;SDS011;63134;52.020;4.714;2022-12-07T04:31:52;12.75;;;2.58;;
22786;SDS011;63134;52.020;4.714;2022-12-07T04:34:38;23.10;;;2.80;;
22786;SDS011;63134;52.020;4.714;2022-12-07T04:37:24;15.43;;;2.30;;
22786;SDS011;63134;52.020;4.714;2022-12-07T04:40:12;19.75;;;2.30;;
22786;SDS011;63134;52.020;4.714;2022-12-07T04:42:59;14.00;;;1.88;;
22786;SDS011;63134;52.020;4.714;2022-12-07T04:45:46;12.00;;;1.80;;
22786;SDS011;63134;52.020;4.714;2022-12-07T04:48:36;11.10;;;1.90;;
22786;SDS011;63134;52.020;4.714;2022-12-07T04:51:25;9.27;;;2.17;;
22786;SDS011;63134;52.020;4.714;2022-12-07T04:54:12;9.18;;;1.85;;
22786;SDS011;63134;52.020;4.714;2022-12-07T04:56:59;7.53;;;1.60;;
22786;SDS011;63134;52.020;4.714;2022-12-07T04:59:56;10.27;;;2.20;;
22786;SDS011;63134;52.020;4.714;2022-12-07T05:02:42;12.98;;;2.17;;
22786;SDS011;63134;52.020;4.714;2022-12-07T05:05:34;8.65;;;1.88;;
22786;SDS011;63134;52.020;4.714;2022-12-07T05:08:19;7.95;;;1.98;;
22786;SDS011;63134;52.020;4.714;2022-12-07T05:11:05;7.65;;;2.35;;
22786;SDS011;63134;52.020;4.714;2022-12-07T05:13:51;9.55;;;1.73;;
22786;SDS011;63134;52.020;4.714;2022-12-07T05:16:39;11.32;;;2.40;;
22786;SDS011;63134;52.020;4.714;2022-12-07T05:19:26;10.95;;;1.88;;
22786;SDS011;63134;52.020;4.714;2022-12-07T05:22:12;18.88;;;2.47;;
22786;SDS011;63134;52.020;4.714;2022-12-07T05:24:58;12.38;;;1.95;;
22786;SDS011;63134;52.020;4.714;2022-12-07T05:27:43;14.55;;;2.13;;
22786;SDS011;63134;52.020;4.714;2022-12-07T05:30:29;14.07;;;1.98;;
22786;SDS011;63134;52.020;4.714;2022-12-07T05:33:16;7.20;;;2.42;;
22786;SDS011;63134;52.020;4.714;2022-12-07T05:36:01;16.52;;;2.15;;
22786;SDS011;63134;52.020;4.714;2022-12-07T05:38:50;12.18;;;2.05;;
22786;SDS011;63134;52.020;4.714;2022-12-07T05:41:36;12.35;;;1.92;;
22786;SDS011;63134;52.020;4.714;2022-12-07T05:44:41;7.85;;;1.98;;
22786;SDS011;63134;52.020;4.714;2022-12-07T05:47:30;12.00;;;2.00;;
22786;SDS011;63134;52.020;4.714;2022-12-07T05:50:16;14.60;;;2.72;;
22786;SDS011;63134;52.020;4.714;2022-12-07T05:53:16;15.40;;;2.70;;
22786;SDS011;63134;52.020;4.714;2022-12-07T05:56:07;12.63;;;2.25;;
22786;SDS011;63134;52.020;4.714;2022-12-07T05:58:53;12.90;;;2.80;;
22786;SDS011;63134;52.020;4.714;2022-12-07T06:02:08;12.50;;;2.40;;
22786;SDS011;63134;52.020;4.714;2022-12-07T06:04:55;11.10;;;2.05;;
22786;SDS011;63134;52.020;4.714;2022-12-07T06:07:41;15.93;;;2.45;;
22786;SDS011;63134;52.020;4.714;2022-12-07T06:10:26;11.73;;;2.10;;
22786;SDS011;63134;52.020;4.714;2022-12-07T06:13:18;18.30;;;2.70;;
22786;SDS011;63134;52.020;4.714;2022-12-07T06:16:04;11.38;;;1.80;;
22786;SDS011;63134;52.020;4.714;2022-12-07T06:18:50;10.75;;;2.17;;
22786;SDS011;63134;52.020;4.714;2022-12-07T06:21:35;12.35;;;2.03;;
22786;SDS011;63134;52.020;4.714;2022-12-07T06:24:23;7.82;;;2.05;;
22786;SDS011;63134;52.020;4.714;2022-12-07T06:27:09;15.45;;;2.25;;
22786;SDS011;63134;52.020;4.714;2022-12-07T06:29:55;16.13;;;2.90;;
22786;SDS011;63134;52.020;4.714;2022-12-07T06:32:40;12.75;;;2.60;;
22786;SDS011;63134;52.020;4.714;2022-12-07T06:35:25;12.27;;;2.33;;
22786;SDS011;63134;52.020;4.714;2022-12-07T06:38:11;12.38;;;2.70;;
22786;SDS011;63134;52.020;4.714;2022-12-07T06:40:57;11.00;;;2.13;;
22786;SDS011;63134;52.020;4.714;2022-12-07T06:43:43;13.68;;;3.13;;
22786;SDS011;63134;52.020;4.714;2022-12-07T06:46:31;22.77;;;2.92;;
22786;SDS011;63134;52.020;4.714;2022-12-07T06:49:23;21.42;;;3.28;;
22786;SDS011;63134;52.020;4.714;2022-12-07T06:52:08;9.73;;;2.28;;
22786;SDS011;63134;52.020;4.714;2022-12-07T06:54:54;12.43;;;3.28;;
22786;SDS011;63134;52.020;4.714;2022-12-07T06:57:39;8.43;;;2.80;;
22786;SDS011;63134;52.020;4.714;2022-12-07T07:00:24;14.18;;;3.00;;
22786;SDS011;63134;52.020;4.714;2022-12-07T07:03:10;19.70;;;3.00;;
22786;SDS011;63134;52.020;4.714;2022-12-07T07:05:56;14.18;;;3.63;;
22786;SDS011;63134;52.020;4.714;2022-12-07T07:08:49;13.98;;;2.83;;
22786;SDS011;63134;52.020;4.714;2022-12-07T07:11:35;10.52;;;2.45;;
22786;SDS011;63134;52.020;4.714;2022-12-07T07:14:20;22.30;;;3.53;;
22786;SDS011;63134;52.020;4.714;2022-12-07T07:17:09;20.98;;;2.92;;
22786;SDS011;63134;52.020;4.714;2022-12-07T07:19:57;19.13;;;3.05;;
22786;SDS011;63134;52.020;4.714;2022-12-07T07:22:42;11.02;;;2.67;;
22786;SDS011;63134;52.020;4.714;2022-12-07T07:25:28;17.17;;;2.80;;
22786;SDS011;63134;52.020;4.714;2022-12-07T07:28:14;11.68;;;2.80;;
22786;SDS011;63134;52.020;4.714;2022-12-07T07:31:00;9.38;;;2.55;;
22786;SDS011;63134;52.020;4.714;2022-12-07T07:33:46;12.35;;;2.50;;
22786;SDS011;63134;52.020;4.714;2022-12-07T07:36:32;16.90;;;3.75;;
22786;SDS011;63134;52.020;4.714;2022-12-07T07:39:17;7.95;;;2.50;;
22786;SDS011;63134;52.020;4.714;2022-12-07T07:42:02;11.05;;;3.15;;
22786;SDS011;63134;52.020;4.714;2022-12-07T07:44:50;10.82;;;3.30;;
22786;SDS011;63134;52.020;4.714;2022-12-07T07:47:38;16.00;;;3.50;;
22786;SDS011;63134;52.020;4.714;2022-12-07T07:50:23;17.95;;;3.50;;
22786;SDS011;63134;52.020;4.714;2022-12-07T07:53:15;12.88;;;4.57;;
22786;SDS011;63134;52.020;4.714;2022-12-07T07:56:00;15.15;;;2.42;;
22786;SDS011;63134;52.020;4.714;2022-12-07T07:58:46;9.93;;;3.30;;
22786;SDS011;63134;52.020;4.714;2022-12-07T08:01:32;13.45;;;2.45;;
22786;SDS011;63134;52.020;4.714;2022-12-07T08:04:17;14.15;;;2.33;;
22786;SDS011;63134;52.020;4.714;2022-12-07T08:07:03;16.23;;;2.38;;
22786;SDS011;63134;52.020;4.714;2022-12-07T08:09:48;10.82;;;2.63;;
22786;SDS011;63134;52.020;4.714;2022-12-07T08:12:38;11.77;;;3.22;;
22786;SDS011;63134;52.020;4.714;2022-12-07T08:15:45;11.73;;;2.42;;
22786;SDS011;63134;52.020;4.714;2022-12-07T08:18:35;14.50;;;3.38;;
22786;SDS011;63134;52.020;4.714;2022-12-07T08:21:21;15.18;;;2.60;;
22786;SDS011;63134;52.020;4.714;2022-12-07T08:24:09;14.40;;;3.20;;
22786;SDS011;63134;52.020;4.714;2022-12-07T08:26:55;14.13;;;2.75;;
22786;SDS011;63134;52.020;4.714;2022-12-07T08:29:40;15.85;;;2.85;;
22786;SDS011;63134;52.020;4.714;2022-12-07T08:32:29;20.70;;;4.13;;
22786;SDS011;63134;52.020;4.714;2022-12-07T08:35:14;17.67;;;4.40;;
22786;SDS011;63134;52.020;4.714;2022-12-07T08:38:00;17.63;;;4.93;;
22786;SDS011;63134;52.020;4.714;2022-12-07T08:40:54;15.25;;;3.20;;
22786;SDS011;63134;52.020;4.714;2022-12-07T08:43:41;17.77;;;3.00;;
22786;SDS011;63134;52.020;4.714;2022-12-07T08:46:44;11.45;;;2.85;;
22786;SDS011;63134;52.020;4.714;2022-12-07T08:49:39;13.15;;;2.83;;
22786;SDS011;63134;52.020;4.714;2022-12-07T08:52:26;11.45;;;2.90;;
22786;SDS011;63134;52.020;4.714;2022-12-07T08:55:15;10.02;;;2.92;;
22786;SDS011;63134;52.020;4.714;2022-12-07T08:58:01;8.77;;;2.35;;
22786;SDS011;63134;52.020;4.714;2022-12-07T09:00:47;16.42;;;3.00;;
22786;SDS011;63134;52.020;4.714;2022-12-07T09:03:33;8.27;;;3.30;;
22786;SDS011;63134;52.020;4.714;2022-12-07T09:06:19;9.70;;;2.80;;
22786;SDS011;63134;52.020;4.714;2022-12-07T09:09:04;9.05;;;2.22;;
22786;SDS011;63134;52.020;4.714;2022-12-07T09:11:52;8.52;;;3.10;;
22786;SDS011;63134;52.020;4.714;2022-12-07T09:14:38;9.15;;;2.47;;
22786;SDS011;63134;52.020;4.714;2022-12-07T09:17:23;9.10;;;2.05;;
22786;SDS011;63134;52.020;4.714;2022-12-07T09:20:09;8.52;;;2.33;;
22786;SDS011;63134;52.020;4.714;2022-12-07T09:22:55;9.95;;;2.78;;
22786;SDS011;63134;52.020;4.714;2022-12-07T09:25:41;4.60;;;1.77;;
22786;SDS011;63134;52.020;4.714;2022-12-07T09:28:26;6.13;;;2.17;;
22786;SDS011;63134;52.020;4.714;2022-12-07T09:31:14;6.50;;;1.92;;
22786;SDS011;63134;52.020;4.714;2022-12-07T09:34:09;6.07;;;2.03;;
22786;SDS011;63134;52.020;4.714;2022-12-07T09:36:55;8.20;;;1.50;;
22786;SDS011;63134;52.020;4.714;2022-12-07T09:39:40;8.43;;;2.90;;
22786;SDS011;63134;52.020;4.714;2022-12-07T09:42:37;4.22;;;2.13;;
22786;SDS011;63134;52.020;4.714;2022-12-07T09:45:31;9.70;;;4.35;;
22786;SDS011;63134;52.020;4.714;2022-12-07T09:48:34;8.85;;;1.70;;
22786;SDS011;63134;52.020;4.714;2022-12-07T09:51:24;5.45;;;1.65;;
22786;SDS011;63134;52.020;4.714;2022-12-07T09:54:14;7.63;;;2.00;;
22786;SDS011;63134;52.020;4.714;2022-12-07T09:57:00;5.32;;;1.70;;
22786;SDS011;63134;52.020;4.714;2022-12-07T09:59:46;12.27;;;2.60;;
22786;SDS011;63134;52.020;4.714;2022-12-07T10:05:30;7.45;;;2.00;;
22786;SDS011;63134;52.020;4.714;2022-12-07T10:08:25;9.75;;;2.03;;
22786;SDS011;63134;52.020;4.714;2022-12-07T10:11:11;11.35;;;2.47;;
22786;SDS011;63134;52.020;4.714;2022-12-07T10:14:10;10.95;;;2.40;;
22786;SDS011;63134;52.020;4.714;2022-12-07T10:16:57;11.70;;;2.28;;
22786;SDS011;63134;52.020;4.714;2022-12-07T10:19:43;12.43;;;2.33;;
22786;SDS011;63134;52.020;4.714;2022-12-07T10:22:28;12.18;;;2.22;;
22786;SDS011;63134;52.020;4.714;2022-12-07T10:25:19;15.43;;;2.60;;
22786;SDS011;63134;52.020;4.714;2022-12-07T10:30:55;7.30;;;2.20;;
22786;SDS011;63134;52.020;4.714;2022-12-07T10:33:49;6.72;;;2.47;;
22786;SDS011;63134;52.020;4.714;2022-12-07T10:36:40;8.95;;;2.67;;
22786;SDS011;63134;52.020;4.714;2022-12-07T10:39:26;11.43;;;3.15;;
22786;SDS011;63134;52.020;4.714;2022-12-07T10:45:09;9.88;;;1.98;;
22786;SDS011;63134;52.020;4.714;2022-12-07T10:48:11;14.73;;;2.78;;
22786;SDS011;63134;52.020;4.714;2022-12-07T10:51:10;16.13;;;2.75;;
22786;SDS011;63134;52.020;4.714;2022-12-07T10:54:26;14.77;;;3.22;;
22786;SDS011;63134;52.020;4.714;2022-12-07T11:00:29;14.00;;;2.28;;
22786;SDS011;63134;52.020;4.714;2022-12-07T11:03:24;9.93;;;2.70;;
22786;SDS011;63134;52.020;4.714;2022-12-07T11:06:34;12.40;;;2.47;;
22786;SDS011;63134;52.020;4.714;2022-12-07T11:22:17;9.13;;;2.50;;
22786;SDS011;63134;52.020;4.714;2022-12-07T11:25:20;11.95;;;2.58;;
22786;SDS011;63134;52.020;4.714;2022-12-07T11:34:27;21.70;;;2.95;;
22786;SDS011;63134;52.020;4.714;2022-12-07T11:37:18;12.57;;;2.13;;
22786;SDS011;63134;52.020;4.714;2022-12-07T11:43:31;8.55;;;2.20;;
22786;SDS011;63134;52.020;4.714;2022-12-07T11:46:19;11.70;;;2.47;;
22786;SDS011;63134;52.020;4.714;2022-12-07T11:52:45;9.63;;;2.45;;
22786;SDS011;63134;52.020;4.714;2022-12-07T12:01:39;7.18;;;1.75;;
22786;SDS011;63134;52.020;4.714;2022-12-07T12:07:40;6.93;;;1.77;;
22786;SDS011;63134;52.020;4.714;2022-12-07T12:11:03;6.43;;;1.60;;
22786;SDS011;63134;52.020;4.714;2022-12-07T12:20:40;8.95;;;1.73;;
22786;SDS011;63134;52.020;4.714;2022-12-07T12:23:56;9.95;;;2.10;;
22786;SDS011;63134;52.020;4.714;2022-12-07T12:26:56;9.43;;;2.08;;
22786;SDS011;63134;52.020;4.714;2022-12-07T12:29:51;7.32;;;1.70;;
22786;SDS011;63134;52.020;4.714;2022-12-07T12:32:40;5.82;;;1.92;;
22786;SDS011;63134;52.020;4.714;2022-12-07T12:35:35;8.35;;;1.58;;
22786;SDS011;63134;52.020;4.714;2022-12-07T12:38:40;9.57;;;1.75;;
22786;SDS011;63134;52.020;4.714;2022-12-07T12:41:53;3.22;;;1.35;;
22786;SDS011;63134;52.020;4.714;2022-12-07T12:44:41;7.43;;;1.75;;
22786;SDS011;63134;52.020;4.714;2022-12-07T12:50:43;4.30;;;1.75;;
22786;SDS011;63134;52.020;4.714;2022-12-07T12:53:29;7.93;;;1.83;;
22786;SDS011;63134;52.020;4.714;2022-12-07T12:56:22;8.85;;;1.95;;
22786;SDS011;63134;52.020;4.714;2022-12-07T13:02:27;4.63;;;1.17;;
22786;SDS011;63134;52.020;4.714;2022-12-07T13:08:05;6.40;;;1.42;;
22786;SDS011;63134;52.020;4.714;2022-12-07T13:11:18;3.15;;;1.52;;
22786;SDS011;63134;52.020;4.714;2022-12-07T13:23:33;6.45;;;1.50;;
22786;SDS011;63134;52.020;4.714;2022-12-07T13:26:41;5.38;;;1.45;;
22786;SDS011;63134;52.020;4.714;2022-12-07T13:29:29;4.07;;;1.20;;
22786;SDS011;63134;52.020;4.714;2022-12-07T13:32:23;8.50;;;1.60;;
22786;SDS011;63134;52.020;4.714;2022-12-07T13:35:27;6.47;;;1.60;;
22786;SDS011;63134;52.020;4.714;2022-12-07T13:38:32;3.97;;;1.50;;
22786;SDS011;63134;52.020;4.714;2022-12-07T13:41:22;6.90;;;1.83;;
22786;SDS011;63134;52.020;4.714;2022-12-07T13:44:12;7.22;;;1.60;;
22786;SDS011;63134;52.020;4.714;2022-12-07T13:53:12;8.13;;;2.00;;
22786;SDS011;63134;52.020;4.714;2022-12-07T13:55:59;8.60;;;1.73;;
22786;SDS011;63134;52.020;4.714;2022-12-07T13:58:46;6.30;;;1.45;;
22786;SDS011;63134;52.020;4.714;2022-12-07T14:01:31;6.07;;;1.35;;
22786;SDS011;63134;52.020;4.714;2022-12-07T14:04:18;3.70;;;1.40;;
22786;SDS011;63134;52.020;4.714;2022-12-07T14:07:19;3.63;;;1.13;;
22786;SDS011;63134;52.020;4.714;2022-12-07T14:10:24;3.42;;;1.17;;
22786;SDS011;63134;52.020;4.714;2022-12-07T14:16:21;3.53;;;1.15;;
22786;SDS011;63134;52.020;4.714;2022-12-07T14:22:35;5.00;;;1.50;;
22786;SDS011;63134;52.020;4.714;2022-12-07T14:25:23;3.72;;;1.45;;
22786;SDS011;63134;52.020;4.714;2022-12-07T14:28:27;10.15;;;1.70;;
22786;SDS011;63134;52.020;4.714;2022-12-07T14:31:18;9.15;;;2.85;;
22786;SDS011;63134;52.020;4.714;2022-12-07T14:34:15;6.18;;;1.80;;
22786;SDS011;63134;52.020;4.714;2022-12-07T14:37:00;6.68;;;1.90;;
22786;SDS011;63134;52.020;4.714;2022-12-07T14:39:48;6.32;;;1.40;;
22786;SDS011;63134;52.020;4.714;2022-12-07T14:42:39;6.32;;;1.48;;
22786;SDS011;63134;52.020;4.714;2022-12-07T14:45:26;6.30;;;1.63;;
22786;SDS011;63134;52.020;4.714;2022-12-07T14:48:15;4.30;;;1.30;;
22786;SDS011;63134;52.020;4.714;2022-12-07T14:51:21;5.63;;;1.60;;
22786;SDS011;63134;52.020;4.714;2022-12-07T14:57:15;6.40;;;1.63;;
22786;SDS011;63134;52.020;4.714;2022-12-07T15:00:00;7.05;;;1.80;;
22786;SDS011;63134;52.020;4.714;2022-12-07T15:02:46;5.40;;;2.20;;
22786;SDS011;63134;52.020;4.714;2022-12-07T15:05:33;4.47;;;1.73;;
22786;SDS011;63134;52.020;4.714;2022-12-07T15:08:19;8.77;;;2.22;;
22786;SDS011;63134;52.020;4.714;2022-12-07T15:11:05;10.23;;;2.00;;
22786;SDS011;63134;52.020;4.714;2022-12-07T15:13:50;3.53;;;1.55;;
22786;SDS011;63134;52.020;4.714;2022-12-07T15:16:54;7.80;;;1.95;;
22786;SDS011;63134;52.020;4.714;2022-12-07T15:22:48;8.23;;;2.45;;
22786;SDS011;63134;52.020;4.714;2022-12-07T15:25:34;13.48;;;2.83;;
22786;SDS011;63134;52.020;4.714;2022-12-07T15:28:19;10.30;;;2.22;;
22786;SDS011;63134;52.020;4.714;2022-12-07T15:31:10;13.18;;;2.50;;
22786;SDS011;63134;52.020;4.714;2022-12-07T15:34:19;6.28;;;2.33;;
22786;SDS011;63134;52.020;4.714;2022-12-07T15:37:04;8.15;;;2.10;;
22786;SDS011;63134;52.020;4.714;2022-12-07T15:39:50;11.30;;;2.55;;
22786;SDS011;63134;52.020;4.714;2022-12-07T15:42:39;15.73;;;3.03;;
22786;SDS011;63134;52.020;4.714;2022-12-07T15:45:25;7.28;;;2.58;;
22786;SDS011;63134;52.020;4.714;2022-12-07T15:48:10;7.68;;;2.42;;
22786;SDS011;63134;52.020;4.714;2022-12-07T15:51:13;11.73;;;2.80;;
22786;SDS011;63134;52.020;4.714;2022-12-07T15:53:58;9.07;;;2.00;;
22786;SDS011;63134;52.020;4.714;2022-12-07T15:56:44;11.73;;;2.75;;
22786;SDS011;63134;52.020;4.714;2022-12-07T15:59:30;10.75;;;2.58;;
22786;SDS011;63134;52.020;4.714;2022-12-07T16:02:16;10.93;;;3.03;;
22786;SDS011;63134;52.020;4.714;2022-12-07T16:05:07;8.13;;;2.45;;
22786;SDS011;63134;52.020;4.714;2022-12-07T16:07:52;8.25;;;2.10;;
22786;SDS011;63134;52.020;4.714;2022-12-07T16:10:38;11.65;;;2.40;;
22786;SDS011;63134;52.020;4.714;2022-12-07T16:13:26;11.25;;;2.40;;
22786;SDS011;63134;52.020;4.714;2022-12-07T16:16:13;14.65;;;3.60;;
22786;SDS011;63134;52.020;4.714;2022-12-07T16:19:00;6.85;;;2.92;;
22786;SDS011;63134;52.020;4.714;2022-12-07T16:21:47;9.60;;;2.65;;
22786;SDS011;63134;52.020;4.714;2022-12-07T16:24:32;13.40;;;2.72;;
22786;SDS011;63134;52.020;4.714;2022-12-07T16:27:18;11.20;;;3.10;;
22786;SDS011;63134;52.020;4.714;2022-12-07T16:30:04;14.60;;;3.88;;
22786;SDS011;63134;52.020;4.714;2022-12-07T16:32:50;12.13;;;4.65;;
22786;SDS011;63134;52.020;4.714;2022-12-07T16:35:39;10.90;;;3.65;;
22786;SDS011;63134;52.020;4.714;2022-12-07T16:38:26;13.38;;;4.03;;
22786;SDS011;63134;52.020;4.714;2022-12-07T16:41:12;13.23;;;4.72;;
22786;SDS011;63134;52.020;4.714;2022-12-07T16:44:00;9.10;;;2.95;;
22786;SDS011;63134;52.020;4.714;2022-12-07T16:46:48;10.68;;;4.07;;
22786;SDS011;63134;52.020;4.714;2022-12-07T16:49:34;10.30;;;3.33;;
22786;SDS011;63134;52.020;4.714;2022-12-07T16:52:20;17.70;;;4.53;;
22786;SDS011;63134;52.020;4.714;2022-12-07T16:55:07;15.45;;;5.10;;
22786;SDS011;63134;52.020;4.714;2022-12-07T16:57:52;13.07;;;3.97;;
22786;SDS011;63134;52.020;4.714;2022-12-07T17:00:44;16.30;;;3.65;;
22786;SDS011;63134;52.020;4.714;2022-12-07T17:03:30;9.93;;;3.70;;
22786;SDS011;63134;52.020;4.714;2022-12-07T17:06:17;13.40;;;4.00;;
22786;SDS011;63134;52.020;4.714;2022-12-07T17:09:08;16.23;;;3.78;;
22786;SDS011;63134;52.020;4.714;2022-12-07T17:11:54;11.60;;;3.40;;
22786;SDS011;63134;52.020;4.714;2022-12-07T17:14:39;22.48;;;5.35;;
22786;SDS011;63134;52.020;4.714;2022-12-07T17:17:44;11.52;;;3.25;;
22786;SDS011;63134;52.020;4.714;2022-12-07T17:20:30;17.08;;;4.88;;
22786;SDS011;63134;52.020;4.714;2022-12-07T17:23:17;16.38;;;4.40;;
22786;SDS011;63134;52.020;4.714;2022-12-07T17:26:07;13.05;;;4.30;;
22786;SDS011;63134;52.020;4.714;2022-12-07T17:28:57;11.50;;;3.45;;
22786;SDS011;63134;52.020;4.714;2022-12-07T17:31:44;12.15;;;4.32;;
22786;SDS011;63134;52.020;4.714;2022-12-07T17:34:35;9.27;;;3.42;;
22786;SDS011;63134;52.020;4.714;2022-12-07T17:37:21;12.48;;;3.08;;
22786;SDS011;63134;52.020;4.714;2022-12-07T17:40:10;14.27;;;3.38;;
22786;SDS011;63134;52.020;4.714;2022-12-07T17:42:56;12.25;;;2.80;;
22786;SDS011;63134;52.020;4.714;2022-12-07T17:45:42;10.45;;;2.83;;
22786;SDS011;63134;52.020;4.714;2022-12-07T17:48:27;9.82;;;2.63;;
22786;SDS011;63134;52.020;4.714;2022-12-07T17:51:13;7.38;;;2.67;;
22786;SDS011;63134;52.020;4.714;2022-12-07T17:54:17;7.05;;;1.88;;
22786;SDS011;63134;52.020;4.714;2022-12-07T17:57:03;9.32;;;1.90;;
22786;SDS011;63134;52.020;4.714;2022-12-07T17:59:48;5.65;;;1.90;;
22786;SDS011;63134;52.020;4.714;2022-12-07T18:02:39;7.13;;;2.10;;
22786;SDS011;63134;52.020;4.714;2022-12-07T18:05:25;5.82;;;1.92;;
22786;SDS011;63134;52.020;4.714;2022-12-07T18:08:10;5.00;;;1.60;;
22786;SDS011;63134;52.020;4.714;2022-12-07T18:10:57;11.40;;;3.25;;
22786;SDS011;63134;52.020;4.714;2022-12-07T18:13:44;9.20;;;2.03;;
22786;SDS011;63134;52.020;4.714;2022-12-07T18:16:30;9.13;;;3.67;;
22786;SDS011;63134;52.020;4.714;2022-12-07T18:19:19;9.25;;;2.05;;
22786;SDS011;63134;52.020;4.714;2022-12-07T18:22:04;6.00;;;2.17;;
22786;SDS011;63134;52.020;4.714;2022-12-07T18:24:50;12.02;;;3.13;;
22786;SDS011;63134;52.020;4.714;2022-12-07T18:27:36;8.02;;;2.60;;
22786;SDS011;63134;52.020;4.714;2022-12-07T18:30:22;9.77;;;2.30;;
22786;SDS011;63134;52.020;4.714;2022-12-07T18:33:31;13.10;;;4.03;;
22786;SDS011;63134;52.020;4.714;2022-12-07T18:36:16;7.82;;;2.60;;
22786;SDS011;63134;52.020;4.714;2022-12-07T18:39:05;13.27;;;4.32;;
22786;SDS011;63134;52.020;4.714;2022-12-07T18:42:00;7.78;;;3.90;;
22786;SDS011;63134;52.020;4.714;2022-12-07T18:44:46;8.82;;;2.80;;
22786;SDS011;63134;52.020;4.714;2022-12-07T18:47:34;14.93;;;2.92;;
22786;SDS011;63134;52.020;4.714;2022-12-07T18:50:19;13.48;;;3.30;;